createdAt,value
2018-10-19T00:01:11.459Z,12.41
2018-10-19T00:03:40.915Z,12.48
2018-10-19T00:06:10.352Z,12.45
2018-10-19T00:08:40.075Z,12.40
2018-10-19T00:11:10.036Z,12.31
2018-10-19T00:13:40.259Z,11.94
2018-10-19T00:16:10.000Z,12.23
2018-10-19T00:18:39.674Z,12.14
2018-10-19T00:21:09.544Z,12.12
2018-10-19T00:23:39.196Z,12.10
2018-10-19T00:26:09.040Z,12.19
2018-10-19T00:28:38.531Z,12.15
2018-10-19T00:31:08.267Z,12.14
2018-10-19T00:33:37.950Z,12.16
2018-10-19T00:36:07.585Z,12.11
2018-10-19T00:38:37.223Z,12.11
2018-10-19T00:41:06.730Z,12.12
2018-10-19T00:43:37.438Z,12.17
2018-10-19T00:46:06.803Z,12.12
2018-10-19T00:48:36.226Z,12.08
2018-10-19T00:51:08.913Z,12.10
2018-10-19T00:53:38.522Z,12.04
2018-10-19T00:56:08.650Z,12.09
2018-10-19T00:58:38.426Z,12.04
2018-10-19T01:01:08.104Z,11.97
2018-10-19T01:03:37.661Z,11.90
2018-10-19T01:06:07.209Z,11.96
2018-10-19T01:08:36.831Z,11.83
2018-10-19T01:11:06.600Z,11.81
2018-10-19T01:13:36.666Z,11.67
2018-10-19T01:16:06.422Z,11.73
2018-10-19T01:18:36.173Z,11.61
2018-10-19T01:21:06.104Z,11.55
2018-10-19T01:23:35.745Z,11.71
2018-10-19T01:26:05.689Z,11.52
2018-10-19T01:28:35.686Z,11.55
2018-10-19T01:31:05.559Z,11.57
2018-10-19T01:33:35.266Z,11.70
2018-10-19T01:36:06.343Z,11.55
2018-10-19T01:38:36.668Z,11.54
2018-10-19T01:41:06.727Z,11.53
2018-10-19T01:43:36.622Z,11.46
2018-10-19T01:46:06.373Z,11.36
2018-10-19T01:48:36.041Z,11.46
2018-10-19T01:51:06.295Z,11.12
2018-10-19T01:53:35.925Z,11.02
2018-10-19T01:56:05.773Z,10.85
2018-10-19T01:58:35.289Z,10.89
2018-10-19T02:01:05.127Z,10.98
2018-10-19T02:03:34.945Z,11.05
2018-10-19T02:06:04.688Z,11.03
2018-10-19T02:08:34.341Z,11.06
2018-10-19T02:11:04.116Z,11.02
2018-10-19T02:13:33.675Z,11.08
2018-10-19T02:16:03.583Z,10.91
2018-10-19T02:18:33.368Z,11.01
2018-10-19T02:21:03.245Z,10.82
2018-10-19T02:23:32.955Z,10.82
2018-10-19T02:26:02.603Z,10.85
2018-10-19T02:28:33.007Z,10.84
2018-10-19T02:31:02.976Z,10.87
2018-10-19T02:33:32.841Z,10.77
2018-10-19T02:36:02.535Z,10.71
2018-10-19T02:38:32.208Z,10.58
2018-10-19T02:41:01.805Z,10.57
2018-10-19T02:43:31.824Z,10.62
2018-10-19T02:46:01.852Z,10.50
2018-10-19T02:48:31.603Z,10.45
2018-10-19T02:51:01.182Z,10.43
2018-10-19T02:53:31.061Z,10.44
2018-10-19T02:56:00.707Z,10.38
2018-10-19T02:58:30.620Z,10.34
2018-10-19T03:01:00.906Z,10.38
2018-10-19T03:03:30.796Z,10.37
2018-10-19T03:06:00.484Z,10.32
2018-10-19T03:08:30.381Z,10.43
2018-10-19T03:11:00.311Z,10.47
2018-10-19T03:13:29.729Z,10.43
2018-10-19T03:15:59.718Z,10.34
2018-10-19T03:18:29.631Z,10.35
2018-10-19T03:20:59.399Z,10.31
2018-10-19T03:23:29.128Z,10.42
2018-10-19T03:25:58.658Z,10.44
2018-10-19T03:28:28.570Z,10.32
2018-10-19T03:30:58.768Z,10.22
2018-10-19T03:33:28.564Z,10.22
2018-10-19T03:35:58.259Z,10.26
2018-10-19T03:38:27.732Z,10.22
2018-10-19T03:40:57.438Z,10.20
2018-10-19T03:43:27.120Z,10.26
2018-10-19T03:45:57.270Z,10.19
2018-10-19T03:48:26.663Z,10.14
2018-10-19T03:50:56.485Z,10.06
2018-10-19T03:53:25.980Z,10.07
2018-10-19T03:55:55.750Z,10.06
2018-10-19T03:58:25.534Z,10.17
2018-10-19T04:00:55.119Z,10.04
2018-10-19T04:03:24.661Z,10.03
2018-10-19T04:05:54.509Z,9.94
2018-10-19T04:08:23.832Z,9.97
2018-10-19T04:10:53.711Z,9.85
2018-10-19T04:13:23.151Z,9.91
2018-10-19T04:15:52.954Z,9.90
2018-10-19T04:18:22.704Z,9.90
2018-10-19T04:20:52.295Z,9.77
2018-10-19T04:23:21.982Z,9.87
2018-10-19T04:25:51.345Z,9.87
2018-10-19T04:28:21.088Z,9.93
2018-10-19T04:30:50.578Z,9.84
2018-10-19T04:33:20.305Z,9.71
2018-10-19T04:35:50.545Z,9.94
2018-10-19T04:38:20.225Z,9.88
2018-10-19T04:40:49.850Z,10.02
2018-10-19T04:43:19.673Z,9.93
2018-10-19T04:45:49.400Z,9.78
2018-10-19T04:48:20.859Z,9.93
2018-10-19T04:50:50.610Z,9.96
2018-10-19T04:53:20.480Z,9.97
2018-10-19T04:55:50.157Z,10.02
2018-10-19T04:58:19.833Z,10.08
2018-10-19T05:00:50.227Z,10.07
2018-10-19T05:03:20.091Z,10.21
2018-10-19T05:05:49.801Z,10.22
2018-10-19T05:08:19.886Z,10.15
2018-10-19T05:10:49.354Z,10.10
2018-10-19T05:13:19.542Z,10.04
2018-10-19T05:15:49.321Z,10.04
2018-10-19T05:18:19.098Z,10.10
2018-10-19T05:20:48.850Z,10.13
2018-10-19T05:23:18.666Z,10.22
2018-10-19T05:25:48.561Z,10.20
2018-10-19T05:28:18.414Z,10.27
2018-10-19T05:30:48.391Z,10.31
2018-10-19T05:33:18.183Z,10.34
2018-10-19T05:35:47.989Z,10.40
2018-10-19T05:38:17.722Z,10.50
2018-10-19T05:40:47.552Z,10.59
2018-10-19T05:43:17.469Z,10.65
2018-10-19T05:45:47.187Z,10.72
2018-10-19T05:48:17.060Z,10.75
2018-10-19T05:50:53.448Z,10.72
2018-10-19T05:53:23.001Z,10.79
2018-10-19T05:55:53.101Z,10.82
2018-10-19T05:58:22.681Z,10.93
2018-10-19T06:00:52.478Z,10.92
2018-10-19T06:03:22.219Z,10.89
2018-10-19T06:05:52.520Z,10.99
2018-10-19T06:08:22.448Z,11.03
2018-10-19T06:10:52.396Z,11.17
2018-10-19T06:13:22.163Z,11.26
2018-10-19T06:15:52.058Z,11.27
2018-10-19T06:18:21.906Z,11.19
2018-10-19T06:20:51.796Z,11.21
2018-10-19T06:23:21.604Z,11.23
2018-10-19T06:25:51.474Z,11.27
2018-10-19T06:28:21.102Z,11.38
2018-10-19T06:30:51.057Z,11.40
2018-10-19T06:33:20.987Z,11.57
2018-10-19T06:35:50.762Z,11.56
2018-10-19T06:38:20.897Z,11.60
2018-10-19T06:40:50.873Z,11.64
2018-10-19T06:43:20.724Z,11.62
2018-10-19T06:45:50.556Z,11.71
2018-10-19T06:48:20.474Z,11.70
2018-10-19T06:50:50.272Z,11.88
2018-10-19T06:53:20.101Z,11.83
2018-10-19T06:55:49.794Z,11.94
2018-10-19T06:58:19.821Z,12.08
2018-10-19T07:00:49.726Z,12.11
2018-10-19T07:03:19.569Z,12.24
2018-10-19T07:05:50.249Z,12.35
2018-10-19T07:08:20.156Z,12.42
2018-10-19T07:10:50.129Z,12.35
2018-10-19T07:13:20.016Z,12.27
2018-10-19T07:15:49.875Z,12.28
2018-10-19T07:18:19.733Z,12.24
2018-10-19T07:20:49.507Z,12.18
2018-10-19T07:23:19.635Z,12.50
2018-10-19T07:25:49.401Z,12.55
2018-10-19T07:28:19.218Z,12.78
2018-10-19T07:30:49.171Z,13.11
2018-10-19T07:33:18.995Z,13.28
2018-10-19T07:35:49.104Z,13.37
2018-10-19T07:38:18.927Z,13.62
2018-10-19T07:40:48.897Z,13.71
2018-10-19T07:43:18.846Z,13.94
2018-10-19T07:45:48.937Z,13.96
2018-10-19T07:48:19.258Z,14.13
2018-10-19T07:50:49.125Z,14.17
2018-10-19T07:53:19.198Z,14.40
2018-10-19T07:55:49.213Z,14.56
2018-10-19T07:58:19.130Z,14.51
2018-10-19T08:00:49.630Z,14.65
2018-10-19T08:03:19.582Z,14.76
2018-10-19T08:05:49.489Z,15.00
2018-10-19T08:08:19.472Z,15.22
2018-10-19T08:10:49.425Z,15.38
2018-10-19T08:13:19.527Z,15.59
2018-10-19T08:15:49.569Z,15.64
2018-10-19T08:18:19.592Z,15.91
2018-10-19T08:20:49.499Z,15.98
2018-10-19T08:23:19.334Z,16.26
2018-10-19T08:25:49.528Z,16.43
2018-10-19T08:28:19.369Z,16.44
2018-10-19T08:30:49.377Z,16.48
2018-10-19T08:33:19.290Z,16.58
2018-10-19T08:35:49.118Z,16.30
2018-10-19T08:38:19.229Z,16.22
2018-10-19T08:40:49.170Z,16.54
2018-10-19T08:43:19.612Z,16.79
2018-10-19T08:45:49.580Z,16.73
2018-10-19T08:48:19.693Z,16.96
2018-10-19T08:50:49.608Z,17.04
2018-10-19T08:53:19.555Z,17.16
2018-10-19T08:55:49.993Z,17.40
2018-10-19T08:58:19.927Z,17.51
2018-10-19T09:00:49.906Z,17.55
2018-10-19T09:03:20.038Z,17.78
2018-10-19T09:05:49.880Z,17.80
2018-10-19T09:08:20.030Z,17.66
2018-10-19T09:10:50.126Z,17.73
2018-10-19T09:13:20.593Z,17.92
2018-10-19T09:15:50.529Z,18.26
2018-10-19T09:18:20.690Z,18.56
2018-10-19T09:20:50.987Z,18.31
2018-10-19T09:23:20.979Z,18.44
2018-10-19T09:25:50.886Z,18.79
2018-10-19T09:28:20.807Z,18.91
2018-10-19T09:30:50.729Z,19.10
2018-10-19T09:33:21.024Z,19.10
2018-10-19T09:35:51.078Z,19.26
2018-10-19T09:38:21.025Z,19.57
2018-10-19T09:40:51.131Z,19.39
2018-10-19T09:43:21.133Z,19.68
2018-10-19T09:45:51.063Z,19.84
2018-10-19T09:48:21.050Z,19.67
2018-10-19T09:50:51.065Z,19.49
2018-10-19T09:53:20.974Z,19.70
2018-10-19T09:55:50.895Z,19.90
2018-10-19T09:58:21.010Z,19.91
2018-10-19T10:00:55.674Z,20.28
2018-10-19T10:03:25.875Z,20.36
2018-10-19T10:05:55.903Z,20.65
2018-10-19T10:08:25.905Z,20.62
2018-10-19T10:10:55.751Z,20.80
2018-10-19T10:13:25.630Z,21.13
2018-10-19T10:15:55.902Z,20.98
2018-10-19T10:18:25.670Z,21.39
2018-10-19T10:20:55.650Z,21.44
2018-10-19T10:23:25.390Z,21.33
2018-10-19T10:25:55.225Z,20.91
2018-10-19T10:28:25.334Z,21.06
2018-10-19T10:30:55.162Z,21.15
2018-10-19T10:33:24.955Z,21.27
2018-10-19T10:35:54.787Z,21.44
2018-10-19T10:38:24.521Z,21.69
2018-10-19T10:40:54.780Z,21.57
2018-10-19T10:43:24.429Z,21.79
2018-10-19T10:45:54.298Z,21.96
2018-10-19T10:48:24.007Z,22.06
2018-10-19T10:50:54.275Z,21.96
2018-10-19T10:53:24.156Z,21.98
2018-10-19T10:55:54.111Z,22.25
2018-10-19T10:58:23.834Z,21.93
2018-10-19T11:00:53.760Z,21.64
2018-10-19T11:03:23.453Z,21.35
2018-10-19T11:05:53.554Z,21.76
2018-10-19T11:08:24.019Z,22.31
2018-10-19T11:11:03.934Z,22.86
2018-10-19T11:13:33.957Z,22.90
2018-10-19T11:16:04.012Z,23.05
2018-10-19T11:18:33.906Z,22.63
2018-10-19T11:21:03.998Z,22.70
2018-10-19T11:23:34.218Z,21.84
2018-10-19T11:26:04.513Z,21.22
2018-10-19T11:28:34.478Z,21.23
2018-10-19T11:31:04.505Z,21.18
2018-10-19T11:33:34.497Z,21.25
2018-10-19T11:36:04.530Z,21.50
2018-10-19T11:38:34.549Z,21.83
2018-10-19T11:41:04.584Z,22.38
2018-10-19T11:43:34.483Z,22.53
2018-10-19T11:46:04.347Z,22.94
2018-10-19T11:48:34.484Z,23.00
2018-10-19T11:51:04.455Z,23.49
2018-10-19T11:53:34.554Z,23.40
2018-10-19T11:56:04.476Z,23.29
2018-10-19T11:58:34.470Z,23.73
2018-10-19T12:01:04.440Z,23.73
2018-10-19T12:03:34.491Z,24.03
2018-10-19T12:06:04.453Z,24.62
2018-10-19T12:08:34.546Z,24.87
2018-10-19T12:11:04.570Z,24.26
2018-10-19T12:13:34.859Z,23.80
2018-10-19T12:16:05.178Z,23.11
2018-10-19T12:18:35.003Z,22.63
2018-10-19T12:21:04.762Z,22.78
2018-10-19T12:23:34.548Z,22.79
2018-10-19T12:26:04.525Z,22.86
2018-10-19T12:28:34.450Z,22.84
2018-10-19T12:31:04.279Z,22.54
2018-10-19T12:33:34.101Z,22.52
2018-10-19T12:36:03.953Z,23.26
2018-10-19T12:38:33.919Z,23.70
2018-10-19T12:41:03.714Z,24.26
2018-10-19T12:43:33.743Z,24.73
2018-10-19T12:46:24.969Z,25.74
2018-10-19T12:48:55.622Z,26.64
2018-10-19T12:51:25.217Z,26.33
2018-10-19T12:53:55.021Z,25.52
2018-10-19T12:56:24.641Z,24.91
2018-10-19T12:58:55.106Z,24.64
2018-10-19T13:01:25.791Z,25.30
2018-10-19T13:03:55.682Z,25.56
2018-10-19T13:06:25.232Z,25.16
2018-10-19T13:08:55.189Z,24.54
2018-10-19T13:11:25.037Z,23.98
2018-10-19T13:13:55.236Z,23.65
2018-10-19T13:16:24.996Z,23.75
2018-10-19T13:18:54.965Z,23.41
2018-10-19T13:21:24.495Z,22.72
2018-10-19T13:23:54.429Z,22.64
2018-10-19T13:26:24.211Z,22.87
2018-10-19T13:28:53.845Z,23.05
2018-10-19T13:31:23.394Z,23.29
2018-10-19T13:33:53.166Z,24.17
2018-10-19T13:36:22.734Z,24.59
2018-10-19T13:38:52.744Z,23.99
2018-10-19T13:41:22.627Z,23.28
2018-10-19T13:43:52.403Z,22.72
2018-10-19T13:46:22.166Z,22.61
2018-10-19T13:48:51.851Z,22.45
2018-10-19T13:51:21.826Z,22.08
2018-10-19T13:53:51.737Z,22.08
2018-10-19T13:56:21.582Z,22.11
2018-10-19T13:58:51.511Z,21.79
2018-10-19T14:01:21.268Z,21.86
2018-10-19T14:03:51.519Z,21.76
2018-10-19T14:06:21.434Z,21.79
2018-10-19T14:08:51.217Z,21.67
2018-10-19T14:11:20.917Z,21.54
2018-10-19T14:13:50.640Z,21.56
2018-10-19T14:16:20.737Z,21.42
2018-10-19T14:18:50.594Z,21.35
2018-10-19T14:21:20.366Z,21.43
2018-10-19T14:23:50.233Z,21.65
2018-10-19T14:26:20.098Z,22.26
2018-10-19T14:28:50.250Z,22.56
2018-10-19T14:31:20.006Z,22.69
2018-10-19T14:33:49.782Z,22.29
2018-10-19T14:36:19.709Z,21.98
2018-10-19T14:38:49.437Z,21.43
2018-10-19T14:41:19.517Z,21.05
2018-10-19T14:43:49.337Z,21.00
2018-10-19T14:46:19.168Z,20.70
2018-10-19T14:48:48.947Z,20.42
2018-10-19T14:51:18.803Z,20.34
2018-10-19T14:53:48.881Z,20.18
2018-10-19T14:56:18.546Z,20.09
2018-10-19T14:58:49.193Z,20.00
2018-10-19T15:01:18.981Z,19.84
2018-10-19T15:03:48.820Z,19.74
2018-10-19T15:06:19.401Z,19.69
2018-10-19T15:08:49.190Z,19.58
2018-10-19T15:11:19.615Z,19.45
2018-10-19T15:13:49.180Z,19.41
2018-10-19T15:16:18.830Z,19.38
2018-10-19T15:18:48.493Z,19.30
2018-10-19T15:21:18.209Z,19.18
2018-10-19T15:23:48.033Z,19.10
2018-10-19T15:26:17.796Z,18.96
2018-10-19T15:28:47.773Z,18.85
2018-10-19T15:31:17.733Z,18.94
2018-10-19T15:33:47.467Z,18.98
2018-10-19T15:36:17.246Z,18.78
2018-10-19T15:38:46.736Z,18.79
2018-10-19T15:41:16.518Z,18.88
2018-10-19T15:43:46.901Z,18.80
2018-10-19T15:46:16.750Z,18.60
2018-10-19T15:48:46.351Z,18.42
2018-10-19T15:51:16.110Z,18.46
2018-10-19T15:53:45.867Z,18.31
2018-10-19T15:56:15.660Z,18.30
2018-10-19T15:58:45.611Z,18.19
2018-10-19T16:01:15.543Z,18.12
2018-10-19T16:03:45.133Z,17.99
2018-10-19T16:06:15.154Z,18.12
2018-10-19T16:08:44.954Z,18.07
2018-10-19T16:11:14.471Z,17.94
2018-10-19T16:13:44.293Z,17.89
2018-10-19T16:33:36.511Z,17.32
2018-10-19T17:02:09.161Z,17.17
2018-10-19T17:22:01.169Z,17.27
2018-10-19T17:24:30.749Z,17.21
2018-10-19T17:27:00.417Z,17.26
2018-10-19T17:29:29.871Z,17.19
2018-10-19T17:31:59.466Z,17.29
2018-10-19T17:34:29.398Z,17.31
2018-10-19T17:36:59.265Z,17.23
2018-10-19T17:39:29.151Z,17.13
2018-10-19T17:41:58.901Z,17.07
2018-10-19T17:44:28.556Z,17.10
2018-10-19T17:46:58.294Z,17.13
2018-10-19T17:49:28.133Z,17.16
2018-10-19T18:09:20.866Z,16.87
2018-10-19T18:11:51.613Z,16.86
2018-10-19T18:14:21.196Z,16.84
2018-10-19T18:16:50.834Z,16.68
2018-10-19T18:19:20.628Z,16.64
2018-10-19T18:21:50.448Z,16.69
2018-10-19T18:41:41.132Z,16.35
2018-10-19T18:44:10.652Z,16.40
2018-10-19T18:46:40.095Z,16.49
2018-10-19T19:06:31.076Z,16.24
2018-10-19T19:09:00.915Z,16.25
2018-10-19T19:11:30.505Z,16.35
2018-10-19T19:13:59.997Z,16.39
2018-10-19T19:16:30.974Z,16.38
2018-10-19T19:19:00.673Z,16.24
2018-10-19T19:38:53.761Z,16.22
2018-10-19T19:41:28.307Z,16.15
2018-10-19T20:01:20.990Z,16.10
2018-10-19T20:03:50.690Z,16.00
2018-10-19T20:06:20.341Z,16.23
2018-10-19T20:08:49.949Z,16.20
2018-10-19T20:11:19.661Z,16.20
2018-10-19T20:31:10.728Z,16.00
2018-10-19T20:33:40.152Z,15.96
2018-10-19T20:36:09.649Z,15.92
2018-10-19T20:38:39.310Z,15.87
2018-10-19T20:41:09.229Z,15.88
2018-10-19T20:43:39.278Z,15.80
2018-10-19T20:46:08.870Z,15.79
2018-10-19T21:06:00.647Z,15.52
2018-10-19T21:08:30.331Z,15.47
2018-10-19T21:11:00.274Z,15.43
2018-10-19T21:13:30.894Z,15.39
2018-10-19T21:16:00.255Z,15.35
2018-10-19T21:18:29.794Z,15.25
2018-10-19T21:20:59.569Z,15.16
2018-10-19T21:23:29.210Z,15.13
2018-10-19T21:25:58.697Z,15.19
2018-10-19T21:28:28.314Z,15.09
2018-10-19T21:30:58.948Z,15.07
2018-10-19T21:33:29.009Z,15.06
2018-10-19T21:35:58.571Z,14.94
2018-10-19T21:55:51.349Z,14.49
2018-10-19T21:58:21.349Z,14.38
2018-10-19T22:00:51.088Z,14.25
2018-10-19T22:03:20.709Z,14.28
2018-10-19T22:05:50.374Z,14.09
2018-10-19T22:08:20.309Z,13.85
2018-10-19T22:10:50.619Z,13.83
2018-10-19T22:13:20.189Z,13.89
2018-10-19T22:33:11.844Z,13.57
2018-10-19T22:35:41.609Z,13.57
2018-10-19T22:38:11.523Z,13.60
2018-10-19T22:40:41.316Z,13.56
2018-10-19T22:43:11.264Z,13.47
2018-10-19T23:03:04.168Z,13.17
2018-10-19T23:05:33.831Z,13.23
2018-10-19T23:08:03.549Z,13.39
2018-10-19T23:10:33.052Z,13.32
2018-10-19T23:13:02.861Z,13.28
2018-10-19T23:15:32.683Z,13.03
2018-10-19T23:18:02.422Z,12.96
2018-10-19T23:20:32.123Z,12.96
2018-10-19T23:23:01.715Z,12.87
2018-10-19T23:42:53.977Z,12.67
2018-10-19T23:45:24.331Z,12.67
2018-10-19T23:47:53.786Z,12.68
2018-10-19T23:50:23.133Z,12.71
2018-10-19T23:52:52.922Z,12.69
2018-10-19T23:55:22.414Z,12.66
2018-10-19T23:57:52.227Z,12.59
